Time;durP1;ratioP1;P1;durP2;ratioP2;P2;SDS_P1;SDS_P2;PMS_P1;PMS_P2;Temp;Humidity;BMP_temperature;BMP_pressure;BME280_temperature;BME280_humidity;BME280_pressure;Samples;Min_cycle;Max_cycle;Signal;HPM_P1;HPM_P2
2021/04/27 00:03:55;;;;;;;21.97;7.47;;;;;;;9.19;37.76;99060.38;4254773;83;28578;-86
2021/04/27 00:09:57;;;;;;;16.37;6.92;;;;;;;8.85;38.65;99064.39;4278722;82;28556;-86
2021/04/27 00:15:59;;;;;;;16.48;6.97;;;;;;;8.86;39.88;99061.50;4255975;82;28624;-86
2021/04/27 00:22:01;;;;;;;16.90;7.12;;;;;;;8.65;40.07;99054.67;4391855;80;28579;-85
2021/04/27 00:28:04;;;;;;;17.10;7.33;;;;;;;8.56;40.15;99060.00;4415721;80;28597;-85
2021/04/27 00:34:06;;;;;;;17.25;7.70;;;;;;;8.14;40.79;99053.22;4393690;80;28681;-85
2021/04/27 00:40:11;;;;;;;21.20;8.25;;;;;;;7.88;40.91;99050.97;4355158;80;28563;-84
2021/04/27 00:46:13;;;;;;;18.92;8.65;;;;;;;7.71;42.13;99055.98;4389499;80;43915;-84
2021/04/27 00:52:16;;;;;;;20.08;8.55;;;;;;;7.68;42.51;99049.73;4361455;80;28634;-84
2021/04/27 00:58:19;;;;;;;26.97;10.82;;;;;;;7.91;41.87;99043.03;4374205;80;28569;-84
2021/04/27 01:04:21;;;;;;;24.63;10.80;;;;;;;6.83;44.21;99044.13;4369925;80;28655;-87
2021/04/27 01:10:29;;;;;;;25.10;10.45;;;;;;;7.24;43.75;99039.58;4403961;80;28592;-85
2021/04/27 01:16:33;;;;;;;29.57;11.30;;;;;;;6.94;45.13;99028.00;4313006;81;28642;-85
2021/04/27 01:22:50;;;;;;;22.58;9.85;;;;;;;7.02;44.51;99020.77;4248728;83;28674;-84
2021/04/27 01:28:53;;;;;;;22.55;10.15;;;;;;;6.98;44.97;99023.88;4216306;83;28594;-85
2021/04/27 01:34:57;;;;;;;21.35;8.85;;;;;;;6.64;45.07;99019.08;4261991;81;28602;-86
2021/04/27 01:41:02;;;;;;;26.35;9.48;;;;;;;6.84;44.53;99019.58;4239072;82;28584;-85
2021/04/27 01:47:06;;;;;;;22.80;9.70;;;;;;;6.19;45.62;99021.48;4217447;82;28684;-86
2021/04/27 01:53:15;;;;;;;17.27;7.67;;;;;;;6.64;44.23;99022.25;4230754;81;28572;-85
2021/04/27 01:59:18;;;;;;;18.37;8.33;;;;;;;7.08;43.09;99024.80;4247166;82;28609;-86
2021/04/27 02:05:20;;;;;;;15.95;6.70;;;;;;;6.74;43.04;99019.98;4207609;82;28598;-85
2021/04/27 02:11:43;;;;;;;19.25;7.95;;;;;;;6.70;42.98;99022.23;4233695;82;28640;-84
2021/04/27 02:18:10;;;;;;;16.32;7.12;;;;;;;6.32;43.73;99022.86;4256420;82;28582;-85
2021/04/27 02:24:14;;;;;;;18.23;6.85;;;;;;;6.58;42.76;99023.89;4257281;83;28586;-85
2021/04/27 02:30:21;;;;;;;17.02;6.45;;;;;;;6.65;43.21;99022.05;4339566;81;43913;-88
2021/04/27 02:36:23;;;;;;;20.10;7.78;;;;;;;6.52;43.45;99026.88;4340661;81;28680;-82
2021/04/27 02:42:27;;;;;;;17.90;7.28;;;;;;;6.42;44.06;99023.78;4331052;81;28564;-83
2021/04/27 02:48:56;;;;;;;14.10;5.65;;;;;;;6.10;46.64;99025.70;4593545;76;85124;-85
2021/04/27 02:55:00;;;;;;;16.42;7.15;;;;;;;5.97;45.89;99025.62;4509881;78;43908;-86
2021/04/27 03:01:04;;;;;;;18.30;7.10;;;;;;;5.94;46.68;99027.36;4505759;78;28585;-86
2021/04/27 03:07:06;;;;;;;15.23;6.22;;;;;;;5.85;46.89;99021.39;4312696;81;43919;-87
2021/04/27 03:13:10;;;;;;;17.15;6.40;;;;;;;5.74;46.77;99025.45;4356839;80;28651;-87
2021/04/27 03:19:23;;;;;;;15.28;6.45;;;;;;;5.36;50.19;99021.89;4403220;80;43969;-87
2021/04/27 03:25:27;;;;;;;15.35;6.75;;;;;;;5.33;50.59;99020.96;4392995;80;43956;-87
2021/04/27 03:31:32;;;;;;;15.10;5.90;;;;;;;5.47;48.43;99024.52;4402087;80;43906;-86
2021/04/27 03:37:35;;;;;;;16.02;6.70;;;;;;;5.19;50.18;99023.56;4371250;80;28647;-86
2021/04/27 03:43:38;;;;;;;15.90;6.58;;;;;;;5.11;51.96;99031.70;4366657;80;43923;-86
2021/04/27 03:49:40;;;;;;;13.88;6.15;;;;;;;5.12;52.94;99029.35;4345910;80;43922;-87
2021/04/27 03:55:42;;;;;;;18.92;6.65;;;;;;;5.23;53.15;99032.00;4348847;80;44310;-87
2021/04/27 04:01:45;;;;;;;15.35;6.62;;;;;;;5.34;53.76;99029.27;4367693;80;43968;-86
2021/04/27 04:07:47;;;;;;;17.37;6.97;;;;;;;5.42;53.89;99029.11;4361501;80;28584;-89
2021/04/27 04:13:51;;;;;;;16.90;6.80;;;;;;;5.44;55.39;99032.40;4367094;80;43962;-88
2021/04/27 04:19:54;;;;;;;18.37;6.45;;;;;;;5.74;54.08;99042.79;4379446;81;43938;-88
2021/04/27 04:25:57;;;;;;;20.82;6.85;;;;;;;5.90;55.26;99056.29;4380009;81;28579;-88
2021/04/27 04:32:00;;;;;;;15.90;6.55;;;;;;;6.17;52.14;99054.24;4366526;81;28572;-87
2021/04/27 04:38:20;;;;;;;13.98;6.35;;;;;;;6.10;54.98;99058.23;4363931;81;28958;-86
2021/04/27 04:44:41;;;;;;;16.65;6.53;;;;;;;6.40;53.23;99055.22;4298919;81;43982;-87
2021/04/27 04:51:12;;;;;;;19.37;9.47;;;;;;;6.57;54.44;99066.33;4345337;79;291459;-88
2021/04/27 04:57:16;;;;;;;19.05;6.78;;;;;;;7.22;50.77;99070.22;4321470;80;28587;-87
2021/04/27 05:03:19;;;;;;;14.53;5.12;;;;;;;7.05;49.46;99077.86;4295089;81;28582;-87
2021/04/27 05:09:40;;;;;;;13.75;5.22;;;;;;;7.16;47.89;99080.40;4310486;81;28566;-86
2021/04/27 05:15:44;;;;;;;10.07;4.53;;;;;;;7.23;46.59;99078.55;4174944;84;36838;-86
2021/04/27 05:21:47;;;;;;;12.18;5.12;;;;;;;7.22;45.42;99072.89;4183730;84;28639;-88
2021/04/27 05:27:49;;;;;;;12.75;5.47;;;;;;;7.63;44.78;99082.98;4181800;84;28585;-88
2021/04/27 05:33:52;;;;;;;14.10;6.00;;;;;;;7.21;45.36;99075.27;4211872;83;28582;-88
2021/04/27 05:39:54;;;;;;;14.43;5.45;;;;;;;6.89;45.23;99092.46;4181758;84;28581;-86
2021/04/27 05:45:56;;;;;;;15.43;6.12;;;;;;;7.78;44.84;99095.59;4196734;82;28628;-85
2021/04/27 05:51:58;;;;;;;18.85;7.50;;;;;;;7.99;42.96;99094.17;4269214;82;28650;-87
2021/04/27 05:58:01;;;;;;;19.32;6.53;;;;;;;7.44;43.34;99095.38;4235970;82;28566;-86
2021/04/27 06:04:03;;;;;;;14.65;6.10;;;;;;;8.09;42.61;99101.23;4248363;81;28626;-87
2021/04/27 06:10:09;;;;;;;25.57;7.85;;;;;;;8.14;42.33;99106.78;4229395;82;28944;-85
2021/04/27 06:16:12;;;;;;;14.83;6.22;;;;;;;8.29;42.06;99102.98;4332152;80;28687;-87
2021/04/27 06:22:14;;;;;;;16.65;5.65;;;;;;;8.65;41.82;99106.41;4311479;80;28595;-86
2021/04/27 06:28:16;;;;;;;15.60;7.47;;;;;;;8.72;41.11;99108.23;4333409;80;28633;-86
2021/04/27 06:34:18;;;;;;;15.10;6.62;;;;;;;8.83;40.46;99112.05;4310210;80;28566;-86
2021/04/27 06:40:21;;;;;;;16.93;7.00;;;;;;;8.92;40.90;99113.43;4314705;80;28657;-86
2021/04/27 06:46:23;;;;;;;21.93;8.08;;;;;;;8.99;40.61;99116.89;4347739;80;28600;-86
2021/04/27 06:52:26;;;;;;;18.62;7.17;;;;;;;9.13;40.79;99112.74;4340787;81;28639;-87
2021/04/27 06:58:28;;;;;;;17.42;7.47;;;;;;;9.16;40.76;99121.69;4333475;80;28624;-86
2021/04/27 07:04:33;;;;;;;20.02;6.67;;;;;;;9.25;40.57;99122.25;4330007;80;28582;-83
2021/04/27 07:10:35;;;;;;;13.78;5.90;;;;;;;9.58;39.76;99111.70;4168182;84;28645;-85
2021/04/27 07:16:38;;;;;;;14.87;6.42;;;;;;;9.71;38.54;99122.83;4170003;84;28657;-84
2021/04/27 07:22:42;;;;;;;16.12;5.72;;;;;;;9.58;38.04;99123.78;4187925;84;28574;-82
2021/04/27 07:28:44;;;;;;;16.70;6.00;;;;;;;9.33;38.26;99118.75;4250348;81;28582;-83
2021/04/27 07:34:49;;;;;;;13.40;5.42;;;;;;;9.18;37.47;99127.67;4212379;82;28564;-83
2021/04/27 07:40:53;;;;;;;10.98;4.97;;;;;;;9.83;36.97;99117.52;4195543;84;28765;-84
2021/04/27 07:47:20;;;;;;;11.18;5.08;;;;;;;9.84;36.02;99125.36;4210872;83;28668;-84
2021/04/27 07:53:25;;;;;;;;;;;;;;;9.68;35.04;99125.94;4203275;83;28604;-84
2021/04/27 07:59:27;;;;;;;11.48;4.92;;;;;;;9.70;35.65;99123.34;4195227;84;20324;-90
2021/04/27 08:05:30;;;;;;;12.68;5.00;;;;;;;10.27;35.60;99128.15;4204704;84;28600;-89
2021/04/27 08:11:34;;;;;;;14.70;5.35;;;;;;;10.56;34.69;99125.73;4196240;83;28616;-90
2021/04/27 08:17:40;;;;;;;10.90;4.58;;;;;;;10.16;34.30;99130.55;4211845;84;28575;-87
2021/04/27 08:23:43;;;;;;;8.28;4.40;;;;;;;10.42;34.09;99127.27;4209609;83;28570;-89
2021/04/27 08:29:45;;;;;;;7.75;4.17;;;;;;;10.92;32.62;99119.09;4194726;84;28630;-84
2021/04/27 08:35:48;;;;;;;8.58;4.12;;;;;;;10.78;31.46;99117.97;4335550;81;28680;-87
2021/04/27 08:41:51;;;;;;;10.30;4.65;;;;;;;11.31;33.16;99112.77;4318046;81;28655;-85
2021/04/27 08:47:54;;;;;;;10.72;4.62;;;;;;;11.17;32.06;99122.94;4323322;81;28622;-84
2021/04/27 08:53:59;;;;;;;9.25;3.85;;;;;;;11.44;31.78;99115.20;4291911;82;28654;-86
2021/04/27 09:00:11;;;;;;;7.55;3.87;;;;;;;11.27;30.39;99114.27;4271625;82;28599;-83
2021/04/27 09:06:20;;;;;;;5.15;2.62;;;;;;;11.94;29.20;99102.77;4310821;82;28638;-85
2021/04/27 09:12:29;;;;;;;5.03;2.67;;;;;;;12.05;28.65;99104.64;4311695;82;28658;-85
2021/04/27 09:18:34;;;;;;;6.33;3.00;;;;;;;12.46;28.91;99104.62;4300217;82;28944;-90
2021/04/27 09:24:40;;;;;;;5.57;3.00;;;;;;;11.84;28.54;99108.23;4313745;82;28580;-87
2021/04/27 09:30:42;;;;;;;5.15;2.37;;;;;;;12.00;28.32;99099.13;4299983;82;28653;-85
2021/04/27 09:36:46;;;;;;;5.15;2.12;;;;;;;11.71;26.03;99095.88;4330499;82;28645;-85
2021/04/27 09:42:54;;;;;;;4.78;2.00;;;;;;;12.22;26.10;99101.20;4310678;82;28580;-86
2021/04/27 09:49:00;;;;;;;4.22;2.33;;;;;;;12.41;26.02;99096.42;4324952;82;28597;-86
2021/04/27 09:55:15;;;;;;;6.47;2.72;;;;;;;12.52;28.40;99093.39;4302663;82;28538;-85
2021/04/27 10:01:20;;;;;;;5.53;2.47;;;;;;;12.49;27.27;99089.30;4311279;82;28581;-84
2021/04/27 10:07:22;;;;;;;4.30;2.65;;;;;;;11.86;26.83;99086.45;4332505;82;28579;-84
2021/04/27 10:13:24;;;;;;;6.05;2.70;;;;;;;12.09;25.93;99073.99;4297943;82;28577;-86
2021/04/27 10:19:28;;;;;;;5.33;2.77;;;;;;;12.39;26.07;99071.06;4323067;82;28630;-84
2021/04/27 10:25:31;;;;;;;4.05;2.30;;;;;;;12.29;25.83;99068.70;4340343;82;28596;-91
2021/04/27 10:31:39;;;;;;;4.28;2.30;;;;;;;12.48;25.48;99055.81;4313340;82;28612;-91
2021/04/27 10:38:13;;;;;;;6.47;2.67;;;;;;;12.13;25.10;99049.02;4313007;82;28599;-92
2021/04/27 10:44:16;;;;;;;5.85;2.92;;;;;;;12.11;25.82;99046.27;4321128;82;28569;-92
2021/04/27 10:50:29;;;;;;;5.47;2.90;;;;;;;11.90;26.05;99040.45;4339131;80;28674;-90
2021/04/27 10:56:45;;;;;;;6.10;3.10;;;;;;;12.24;25.58;99027.13;4180989;83;28619;-91
2021/04/27 11:03:13;;;;;;;5.40;2.60;;;;;;;12.60;26.02;99015.30;4202753;84;28605;-91
2021/04/27 11:09:16;;;;;;;5.87;3.50;;;;;;;11.96;24.99;99026.04;4216259;84;28602;-86
2021/04/27 11:15:33;;;;;;;11.00;4.53;;;;;;;12.35;26.03;99011.93;4186984;83;28656;-86
2021/04/27 11:21:38;;;;;;;8.40;3.98;;;;;;;12.35;26.64;99017.87;4184202;84;28573;-91
2021/04/27 11:27:41;;;;;;;8.23;4.08;;;;;;;12.34;26.89;99008.13;4180802;84;28581;-87
2021/04/27 11:33:43;;;;;;;9.63;3.92;;;;;;;12.34;27.26;99000.86;4188036;84;28605;-87
2021/04/27 11:39:46;;;;;;;8.33;4.33;;;;;;;12.75;26.89;98981.01;4186043;84;28586;-89
2021/04/27 11:45:51;;;;;;;9.18;4.40;;;;;;;12.62;27.36;98980.29;4164386;84;28656;-88
2021/04/27 11:51:53;;;;;;;9.60;4.53;;;;;;;13.09;29.37;98969.63;4262209;82;28564;-86
2021/04/27 11:58:12;;;;;;;7.22;3.98;;;;;;;12.63;28.19;98970.30;4261610;82;28573;-86
2021/04/27 12:04:15;;;;;;;8.90;4.12;;;;;;;12.55;27.86;98977.77;4256188;82;28602;-89
2021/04/27 12:10:17;;;;;;;8.60;4.53;;;;;;;12.87;27.22;98954.74;4264952;82;28576;-89
2021/04/27 12:16:29;;;;;;;8.60;4.22;;;;;;;12.99;27.76;98949.25;4255617;82;28632;-88
2021/04/27 12:22:32;;;;;;;9.83;4.60;;;;;;;13.28;28.12;98944.20;4236726;84;28599;-87
2021/04/27 12:28:38;;;;;;;9.10;4.65;;;;;;;12.91;27.89;98946.45;4254897;82;28600;-87
2021/04/27 12:34:57;;;;;;;9.67;4.20;;;;;;;12.78;28.17;98947.61;4262354;82;47169;-83
2021/04/27 12:40:59;;;;;;;6.30;3.87;;;;;;;12.99;28.01;98924.96;4242938;82;28597;-84
2021/04/27 12:47:22;;;;;;;8.18;4.00;;;;;;;13.29;27.51;98929.64;4231988;83;28659;-84
2021/04/27 12:53:38;;;;;;;7.25;3.83;;;;;;;13.39;27.99;98918.95;4335824;80;28630;-85
2021/04/27 12:59:42;;;;;;;8.03;3.57;;;;;;;13.10;27.24;98921.84;4330087;81;28654;-85
2021/04/27 13:05:44;;;;;;;7.95;3.45;;;;;;;13.36;27.11;98905.42;4330354;80;28575;-84
2021/04/27 13:12:03;;;;;;;8.65;4.00;;;;;;;13.34;27.61;98901.36;4329818;80;28585;-83
2021/04/27 13:18:06;;;;;;;7.28;3.50;;;;;;;13.52;27.39;98886.73;4316494;81;28615;-84
2021/04/27 13:24:13;;;;;;;5.62;3.45;;;;;;;13.54;27.22;98888.63;4328383;81;28687;-84
2021/04/27 13:30:21;;;;;;;6.83;3.40;;;;;;;13.22;26.82;98886.12;4322190;81;28654;-84
2021/04/27 13:36:23;;;;;;;7.12;3.90;;;;;;;13.71;28.42;98889.08;4344346;81;28573;-87
2021/04/27 13:42:25;;;;;;;7.10;3.83;;;;;;;13.94;28.66;98883.34;4200111;84;28660;-86
2021/04/27 13:48:28;;;;;;;7.35;3.05;;;;;;;14.40;27.54;98883.95;4193454;83;28699;-87
2021/04/27 13:54:30;;;;;;;7.00;3.70;;;;;;;14.28;26.75;98871.97;4156000;84;28609;-85
2021/04/27 14:00:33;;;;;;;7.28;4.12;;;;;;;14.15;27.17;98869.98;4324371;81;28593;-87
2021/04/27 14:06:35;;;;;;;6.83;3.65;;;;;;;13.73;26.57;98868.81;4156194;84;28673;-84
2021/04/27 14:12:38;;;;;;;6.53;3.70;;;;;;;14.40;26.90;98852.30;4221349;83;28667;-85
2021/04/27 14:18:40;;;;;;;7.70;4.10;;;;;;;14.25;27.27;98848.16;4186986;84;28937;-85
2021/04/27 14:24:43;;;;;;;9.08;3.67;;;;;;;14.30;26.39;98841.42;4186728;84;28563;-87
2021/04/27 14:30:46;;;;;;;7.28;3.50;;;;;;;14.08;27.18;98841.00;4183460;84;28669;-84
2021/04/27 14:36:50;;;;;;;5.40;3.35;;;;;;;14.44;26.78;98829.61;4177259;84;28648;-84
2021/04/27 14:42:52;;;;;;;6.95;4.12;;;;;;;14.22;27.07;98829.20;4200001;84;28582;-84
2021/04/27 14:48:55;;;;;;;5.50;3.58;;;;;;;14.42;27.86;98826.36;4202037;82;28668;-84
2021/04/27 14:54:57;;;;;;;8.75;4.20;;;;;;;14.05;28.15;98828.02;4225997;83;28636;-86
2021/04/27 15:00:59;;;;;;;6.60;3.85;;;;;;;14.45;27.27;98821.24;4226874;84;28596;-87
2021/04/27 15:07:03;;;;;;;10.23;4.00;;;;;;;14.13;26.45;98823.48;4311567;81;28638;-88
2021/04/27 15:13:06;;;;;;;8.33;4.00;;;;;;;14.03;27.86;98822.86;4340696;81;28575;-85
2021/04/27 15:19:09;;;;;;;8.05;3.65;;;;;;;14.07;27.13;98825.34;4345960;80;28563;-85
2021/04/27 15:25:17;;;;;;;6.50;3.98;;;;;;;14.60;27.18;98816.45;4322951;81;28583;-85
2021/04/27 15:31:19;;;;;;;6.45;3.77;;;;;;;13.82;27.84;98823.25;4207271;82;28593;-84
2021/04/27 15:37:24;;;;;;;7.28;4.00;;;;;;;14.24;27.34;98806.77;4272666;82;28636;-86
2021/04/27 15:43:25;;;;;;;8.70;4.05;;;;;;;14.19;27.05;98793.23;4268963;81;29117;-85
2021/04/27 15:49:28;;;;;;;8.23;3.67;;;;;;;13.88;27.65;98796.53;4255112;82;28689;-84
2021/04/27 15:55:31;;;;;;;7.58;4.20;;;;;;;14.00;27.58;98791.47;4244965;83;28592;-85
2021/04/27 16:01:33;;;;;;;6.72;3.90;;;;;;;13.71;27.78;98784.52;4211038;82;28571;-83
2021/04/27 16:07:36;;;;;;;11.60;4.17;;;;;;;14.40;27.15;98782.53;4198807;83;28658;-85
2021/04/27 16:13:39;;;;;;;7.67;4.03;;;;;;;13.98;27.63;98784.16;4209079;83;28625;-88
2021/04/27 16:19:43;;;;;;;7.55;4.17;;;;;;;13.79;28.14;98789.97;4179735;83;28645;-86
2021/04/27 16:25:47;;;;;;;6.62;3.80;;;;;;;13.80;27.82;98783.52;4160092;84;28702;-84
2021/04/27 16:31:50;;;;;;;7.47;4.03;;;;;;;13.98;28.14;98768.78;4185009;84;28575;-84
2021/04/27 16:37:53;;;;;;;9.85;4.03;;;;;;;13.86;28.01;98773.02;4161716;84;28633;-86
2021/04/27 16:43:55;;;;;;;11.40;4.00;;;;;;;13.80;27.89;98774.86;4187131;84;28648;-84
2021/04/27 16:49:57;;;;;;;8.45;4.15;;;;;;;13.91;27.76;98776.29;4180820;84;28644;-83
2021/04/27 16:56:04;;;;;;;8.78;4.20;;;;;;;13.57;28.39;98769.27;4179510;84;28607;-86
2021/04/27 17:02:06;;;;;;;8.98;4.53;;;;;;;13.69;28.59;98762.88;4184791;84;28608;-85
2021/04/27 17:08:09;;;;;;;10.98;4.30;;;;;;;13.28;28.26;98766.85;4207437;84;28633;-85
2021/04/27 17:14:11;;;;;;;8.70;4.28;;;;;;;13.26;28.84;98770.31;4183799;83;28594;-86
2021/04/27 17:20:14;;;;;;;7.97;4.35;;;;;;;13.48;29.23;98775.69;4182932;84;28597;-88
2021/04/27 17:26:16;;;;;;;6.85;3.65;;;;;;;12.92;28.78;98779.44;4188080;84;28699;-90
2021/04/27 17:32:22;;;;;;;11.03;4.55;;;;;;;13.37;29.11;98780.14;4176656;84;28616;-91
2021/04/27 17:38:25;;;;;;;8.80;3.90;;;;;;;13.15;29.47;98778.03;4178561;84;28615;-89
2021/04/27 17:44:28;;;;;;;8.20;3.70;;;;;;;12.51;30.23;98792.44;4171191;84;28628;-88
2021/04/27 17:50:30;;;;;;;8.85;4.37;;;;;;;12.89;29.95;98792.62;4175550;84;28593;-90
2021/04/27 17:56:33;;;;;;;7.60;4.05;;;;;;;12.63;30.19;98788.25;4199567;84;28607;-89
2021/04/27 18:02:36;;;;;;;9.63;4.60;;;;;;;12.15;30.76;98791.41;4216213;84;28614;-90
2021/04/27 18:08:38;;;;;;;11.65;4.80;;;;;;;11.98;31.22;98797.59;4205462;84;28609;-89
2021/04/27 18:14:41;;;;;;;8.20;4.40;;;;;;;11.54;31.91;98797.44;4193543;84;28644;-88
2021/04/27 18:20:45;;;;;;;10.70;4.75;;;;;;;11.84;31.88;98809.23;4227578;84;28601;-90
2021/04/27 18:26:48;;;;;;;10.28;5.20;;;;;;;11.58;32.51;98807.48;4212671;84;28605;-89
2021/04/27 18:32:50;;;;;;;11.35;5.30;;;;;;;11.43;33.14;98812.06;4208511;84;28660;-88
2021/04/27 18:38:52;;;;;;;13.55;5.50;;;;;;;11.47;33.58;98821.00;4190908;84;28596;-87
2021/04/27 18:44:54;;;;;;;11.75;5.87;;;;;;;11.27;33.98;98828.98;4188599;84;28658;-84
2021/04/27 18:50:57;;;;;;;13.65;5.90;;;;;;;11.28;34.10;98825.23;4204926;82;28670;-90
2021/04/27 18:57:00;;;;;;;13.40;5.90;;;;;;;11.03;34.84;98835.81;4283578;82;28989;-88
2021/04/27 19:03:06;;;;;;;15.55;6.67;;;;;;;11.02;35.23;98834.98;4210613;84;28565;-84
2021/04/27 19:09:08;;;;;;;16.05;7.85;;;;;;;10.74;35.98;98839.28;4197075;83;28624;-82
2021/04/27 19:15:17;;;;;;;15.50;7.92;;;;;;;10.68;36.29;98840.22;4197347;84;28651;-85
2021/04/27 19:21:17;;;;;;;18.32;9.00;;;;;;;10.53;36.76;98842.59;4188533;83;28933;-85
2021/04/27 19:27:19;;;;;;;21.65;10.15;;;;;;;10.67;36.81;98834.55;4183472;84;28692;-84
2021/04/27 19:33:23;;;;;;;24.10;10.70;;;;;;;10.23;37.93;98840.28;4184687;84;28682;-86
2021/04/27 19:39:28;;;;;;;23.03;10.87;;;;;;;10.08;38.59;98842.63;4176975;84;28627;-83
2021/04/27 19:45:30;;;;;;;25.95;11.45;;;;;;;10.27;38.30;98850.04;4187072;83;28697;-83
2021/04/27 19:51:33;;;;;;;25.32;10.88;;;;;;;10.10;38.98;98849.41;4214432;84;28619;-84
2021/04/27 19:57:43;;;;;;;23.25;11.68;;;;;;;9.97;39.49;98846.41;4188319;84;28627;-85
2021/04/27 20:03:46;;;;;;;20.35;10.28;;;;;;;9.87;39.23;98844.82;4351231;80;28685;-84
2021/04/27 20:09:48;;;;;;;19.92;10.25;;;;;;;9.83;39.92;98840.94;4317462;80;28626;-83
2021/04/27 20:15:51;;;;;;;20.90;10.03;;;;;;;9.95;39.65;98844.48;4362418;80;28636;-86
2021/04/27 20:21:55;;;;;;;22.98;10.48;;;;;;;9.95;39.96;98840.97;4350743;81;28678;-86
2021/04/27 20:27:57;;;;;;;21.02;10.08;;;;;;;9.58;40.70;98847.32;4331327;80;28622;-86
2021/04/27 20:33:59;;;;;;;22.80;10.93;;;;;;;9.19;41.83;98844.44;4313568;80;28630;-86
2021/04/27 20:40:03;;;;;;;20.85;9.98;;;;;;;9.16;42.11;98837.36;4343379;81;28608;-89
2021/04/27 20:46:05;;;;;;;21.45;10.15;;;;;;;9.37;41.30;98836.05;4343948;80;28577;-88
2021/04/27 20:52:07;;;;;;;19.70;9.83;;;;;;;9.29;41.62;98839.88;4215694;83;28614;-85
2021/04/27 20:58:10;;;;;;;20.72;10.13;;;;;;;9.30;41.92;98840.69;4238655;83;28618;-84
2021/04/27 21:04:14;;;;;;;20.23;10.28;;;;;;;9.16;41.99;98826.12;4211356;84;28600;-87
2021/04/27 21:10:18;;;;;;;20.72;10.08;;;;;;;8.99;42.62;98826.44;4204130;84;28593;-85
2021/04/27 21:16:21;;;;;;;23.73;10.23;;;;;;;9.01;42.83;98827.06;4226155;83;28579;-84
2021/04/27 21:22:23;;;;;;;24.15;10.18;;;;;;;8.80;43.41;98827.83;4227873;84;28620;-85
2021/04/27 21:28:25;;;;;;;21.12;10.20;;;;;;;8.89;43.27;98833.69;4229641;83;28635;-87
2021/04/27 21:34:27;;;;;;;22.10;10.13;;;;;;;8.71;43.38;98839.35;4201610;84;29099;-86
2021/04/27 21:40:30;;;;;;;19.02;9.85;;;;;;;8.56;43.38;98835.70;4223523;84;28597;-88
2021/04/27 21:46:32;;;;;;;16.12;8.90;;;;;;;8.44;43.87;98838.28;4188829;84;28601;-87
2021/04/27 21:52:35;;;;;;;17.23;7.90;;;;;;;8.72;43.22;98836.16;4247384;82;28598;-87
2021/04/27 21:58:37;;;;;;;20.27;9.43;;;;;;;8.62;43.54;98836.67;4201246;84;28608;-87
2021/04/27 22:04:39;;;;;;;19.52;9.08;;;;;;;8.31;44.25;98833.88;4190854;84;28603;-87
2021/04/27 22:10:41;;;;;;;14.80;8.85;;;;;;;8.39;44.27;98834.64;4254726;83;28605;-87
2021/04/27 22:16:44;;;;;;;19.95;9.05;;;;;;;8.41;44.28;98830.67;4277369;83;28592;-87
2021/04/27 22:22:47;;;;;;;16.48;8.93;;;;;;;8.37;44.44;98833.51;4241995;83;28576;-87
2021/04/27 22:28:50;;;;;;;20.45;10.10;;;;;;;8.51;44.30;98838.25;4227564;83;28638;-86
2021/04/27 22:34:52;;;;;;;19.62;9.33;;;;;;;8.14;45.29;98828.78;4261368;83;28600;-85
2021/04/27 22:40:54;;;;;;;21.12;10.00;;;;;;;8.27;44.92;98831.86;4255140;83;28668;-84
2021/04/27 22:46:56;;;;;;;20.85;9.63;;;;;;;7.86;46.32;98835.39;4247762;83;28568;-83
2021/04/27 22:53:00;;;;;;;21.12;10.65;;;;;;;7.81;46.69;98828.84;4228648;82;28660;-83
2021/04/27 22:59:03;;;;;;;20.08;9.98;;;;;;;7.61;47.53;98822.83;4182325;83;28589;-84
2021/04/27 23:05:06;;;;;;;20.70;10.05;;;;;;;7.64;47.87;98821.05;4173795;84;28659;-87
2021/04/27 23:11:09;;;;;;;20.17;10.15;;;;;;;7.48;48.60;98815.20;4167936;84;28648;-87
2021/04/27 23:17:11;;;;;;;20.50;10.38;;;;;;;7.53;48.55;98815.36;4194913;84;28589;-85
2021/04/27 23:23:13;;;;;;;21.10;10.05;;;;;;;7.53;48.62;98818.56;4187033;84;28613;-85
2021/04/27 23:29:16;;;;;;;22.37;9.80;;;;;;;7.39;48.78;98811.98;4205324;84;28584;-86
2021/04/27 23:35:18;;;;;;;19.60;9.85;;;;;;;7.26;49.62;98818.72;4171602;84;28690;-86
2021/04/27 23:41:21;;;;;;;25.62;11.05;;;;;;;7.50;48.22;98809.64;4176552;84;28638;-86
2021/04/27 23:47:22;;;;;;;21.55;10.55;;;;;;;7.19;48.98;98807.27;4218341;84;28630;-86
2021/04/27 23:53:25;;;;;;;23.22;11.53;;;;;;;7.22;49.12;98802.28;4215854;83;28622;-86
2021/04/27 23:59:27;;;;;;;20.08;10.45;;;;;;;7.04;49.09;98803.00;4221339;84;28608;-86
